Time;durP1;ratioP1;P1;durP2;ratioP2;P2;SDS_P1;SDS_P2;PMS_P1;PMS_P2;Temp;Humidity;BMP_temperature;BMP_pressure;BME280_temperature;BME280_humidity;BME280_pressure;Samples;Min_cycle;Max_cycle;Signal;HPM_P1;HPM_P2
2023/03/14 00:00:00;;;;;;;28.60;5.47;;;10.70;99.90;;;;;;5050176;28;20046;-64
2023/03/14 00:02:27;;;;;;;34.22;6.25;;;10.70;99.90;;;;;;5050671;28;20488;-64
2023/03/14 00:04:54;;;;;;;36.75;6.30;;;10.70;99.90;;;;;;5050474;28;20068;-64
2023/03/14 00:07:20;;;;;;;30.35;5.50;;;10.70;99.90;;;;;;5051818;28;20491;-63
2023/03/14 00:09:47;;;;;;;31.20;6.78;;;10.70;99.90;;;;;;5052378;28;20047;-64
2023/03/14 00:12:14;;;;;;;36.78;7.00;;;10.70;99.90;;;;;;5052870;28;20106;-64
2023/03/14 00:14:42;;;;;;;36.90;5.82;;;10.70;99.90;;;;;;5052355;28;20071;-64
2023/03/14 00:17:09;;;;;;;28.98;5.75;;;10.60;99.90;;;;;;5055421;28;20133;-65
2023/03/14 00:19:35;;;;;;;35.38;6.25;;;10.50;99.90;;;;;;5056349;28;20059;-64
2023/03/14 00:22:02;;;;;;;39.60;6.88;;;10.50;99.90;;;;;;5055899;28;20037;-64
2023/03/14 00:24:29;;;;;;;35.72;6.20;;;10.50;99.90;;;;;;5055809;28;20091;-64
2023/03/14 00:26:56;;;;;;;25.73;4.78;;;10.40;99.90;;;;;;5056013;28;20045;-64
2023/03/14 00:29:22;;;;;;;27.05;5.28;;;10.30;99.90;;;;;;5054798;28;20099;-63
2023/03/14 00:31:49;;;;;;;27.65;5.53;;;10.30;99.90;;;;;;5054384;28;20059;-64
2023/03/14 00:34:16;;;;;;;21.40;4.13;;;10.20;99.90;;;;;;5055590;28;20044;-63
2023/03/14 00:36:43;;;;;;;19.80;4.18;;;10.20;99.90;;;;;;5055972;28;20063;-64
2023/03/14 00:39:11;;;;;;;12.50;3.05;;;10.20;99.90;;;;;;5056490;28;20056;-64
2023/03/14 00:41:38;;;;;;;16.40;3.80;;;10.20;99.90;;;;;;5056188;28;20041;-63
2023/03/14 00:44:05;;;;;;;13.95;3.33;;;10.20;99.90;;;;;;5055428;28;20391;-64
2023/03/14 00:46:32;;;;;;;13.38;3.15;;;10.20;99.90;;;;;;5055653;28;20106;-64
2023/03/14 00:48:59;;;;;;;13.05;2.70;;;10.20;99.90;;;;;;5054597;28;20086;-63
2023/03/14 00:51:25;;;;;;;10.55;2.50;;;10.10;99.90;;;;;;5055798;28;20090;-64
2023/03/14 00:53:54;;;;;;;11.20;2.38;;;10.10;99.90;;;;;;5055477;28;20421;-64
2023/03/14 00:56:21;;;;;;;10.35;2.50;;;10.10;99.90;;;;;;5054252;28;20041;-64
2023/03/14 00:58:48;;;;;;;8.73;2.53;;;10.10;99.90;;;;;;5055700;28;20356;-64
2023/03/14 01:01:15;;;;;;;11.10;2.22;;;10.10;99.90;;;;;;5054025;28;20483;-64
2023/03/14 01:03:42;;;;;;;12.80;3.42;;;10.10;99.90;;;;;;5053914;28;20041;-64
2023/03/14 01:06:08;;;;;;;12.38;2.30;;;10.10;99.90;;;;;;5055558;28;20480;-64
2023/03/14 01:08:35;;;;;;;8.70;1.83;;;10.10;99.90;;;;;;5054927;28;20072;-63
2023/03/14 01:11:02;;;;;;;12.35;2.08;;;10.10;99.90;;;;;;5053681;28;20045;-63
2023/03/14 01:13:30;;;;;;;11.18;2.15;;;10.10;99.90;;;;;;5054883;28;20345;-64
2023/03/14 01:15:57;;;;;;;7.63;2.10;;;10.10;99.90;;;;;;5054953;28;20052;-63
2023/03/14 01:18:24;;;;;;;7.43;1.55;;;10.10;99.90;;;;;;5055001;28;20460;-64
2023/03/14 01:20:51;;;;;;;5.22;1.15;;;10.10;99.90;;;;;;5054765;28;20056;-63
2023/03/14 01:23:18;;;;;;;7.25;1.30;;;10.10;99.90;;;;;;5053869;28;20037;-64
2023/03/14 01:25:44;;;;;;;5.15;1.17;;;10.10;99.90;;;;;;5053673;28;20114;-64
2023/03/14 01:28:11;;;;;;;7.50;1.70;;;10.10;99.90;;;;;;5052215;28;20094;-63
2023/03/14 01:30:39;;;;;;;9.00;1.83;;;10.10;99.90;;;;;;5053378;28;20083;-61
2023/03/14 01:33:06;;;;;;;3.92;1.10;;;9.90;99.90;;;;;;5054814;28;20049;-61
2023/03/14 01:35:32;;;;;;;4.07;1.00;;;9.50;99.90;;;;;;5054928;28;20357;-61
2023/03/14 01:37:59;;;;;;;5.82;1.08;;;9.20;99.90;;;;;;5053563;28;20476;-59
2023/03/14 01:40:26;;;;;;;2.00;0.82;;;9.00;99.90;;;;;;5053347;28;20041;-59
2023/03/14 01:42:53;;;;;;;3.28;0.90;;;8.70;99.90;;;;;;5054611;28;20037;-61
2023/03/14 01:45:20;;;;;;;4.35;0.73;;;8.50;99.90;;;;;;5055252;28;20037;-59
2023/03/14 01:47:47;;;;;;;4.90;0.80;;;8.40;99.90;;;;;;5054008;28;20136;-59
2023/03/14 01:50:14;;;;;;;1.95;0.60;;;8.30;99.90;;;;;;5053337;28;20061;-59
2023/03/14 01:52:41;;;;;;;1.48;0.70;;;8.20;99.90;;;;;;5053926;28;20053;-56
2023/03/14 01:55:09;;;;;;;1.83;0.80;;;8.10;99.90;;;;;;5055110;28;20060;-61
2023/03/14 01:57:36;;;;;;;3.60;0.80;;;8.10;99.90;;;;;;5053216;28;20094;-58
2023/03/14 02:00:03;;;;;;;2.70;0.77;;;8.00;99.90;;;;;;5053478;28;20045;-60
2023/03/14 02:02:38;;;;;;;2.10;0.70;;;8.00;99.90;;;;;;5054846;28;20049;-60
2023/03/14 02:05:05;;;;;;;2.90;0.93;;;7.90;99.90;;;;;;5052752;28;20583;-60
2023/03/14 02:07:35;;;;;;;2.05;0.70;;;7.80;99.90;;;;;;5053147;28;20072;-61
2023/03/14 02:10:11;;;;;;;3.20;0.77;;;7.60;99.90;;;;;;5052812;28;20072;-59
2023/03/14 02:12:38;;;;;;;3.78;0.95;;;7.50;99.90;;;;;;5054469;28;20379;-63
2023/03/14 02:15:12;;;;;;;3.53;1.00;;;7.40;99.90;;;;;;5053178;28;20037;-60
2023/03/14 02:17:49;;;;;;;1.90;0.80;;;7.40;99.90;;;;;;5052719;28;20071;-59
2023/03/14 02:20:39;;;;;;;4.43;1.00;;;7.40;99.90;;;;;;5052468;28;20049;-61
2023/03/14 02:23:06;;;;;;;3.25;1.00;;;7.30;99.90;;;;;;5052767;28;20065;-61
2023/03/14 02:25:33;;;;;;;3.67;0.80;;;7.30;99.90;;;;;;5053880;28;20041;-60
2023/03/14 02:28:00;;;;;;;2.53;0.80;;;7.40;99.90;;;;;;5052547;28;20080;-61
2023/03/14 02:30:26;;;;;;;1.95;0.68;;;7.40;99.90;;;;;;5052588;28;20044;-60
2023/03/14 02:32:53;;;;;;;3.38;0.90;;;7.40;99.90;;;;;;5052328;28;20132;-61
2023/03/14 02:35:20;;;;;;;4.00;1.23;;;7.30;99.90;;;;;;5053847;28;20515;-60
2023/03/14 02:37:47;;;;;;;4.03;1.20;;;7.30;99.90;;;;;;5052538;28;20131;-60
2023/03/14 02:40:14;;;;;;;3.47;1.02;;;7.30;99.90;;;;;;5052187;28;20040;-60
2023/03/14 02:42:42;;;;;;;3.67;1.10;;;7.20;99.90;;;;;;5052143;28;20076;-61
2023/03/14 02:45:09;;;;;;;4.38;1.10;;;7.20;99.90;;;;;;5053332;28;20052;-60
2023/03/14 02:47:41;;;;;;;2.65;1.13;;;7.20;99.90;;;;;;5052477;28;20099;-62
2023/03/14 02:50:08;;;;;;;3.75;1.10;;;7.20;99.90;;;;;;5053549;28;20045;-61
2023/03/14 02:52:35;;;;;;;3.10;0.98;;;7.20;99.90;;;;;;5052308;28;20087;-62
2023/03/14 02:55:03;;;;;;;2.65;0.98;;;7.20;99.90;;;;;;5052218;28;20044;-61
2023/03/14 02:57:31;;;;;;;2.58;0.90;;;7.10;99.90;;;;;;5052275;28;20045;-62
2023/03/14 02:59:58;;;;;;;4.15;0.82;;;7.00;99.90;;;;;;5053366;28;20395;-62
2023/03/14 03:02:25;;;;;;;4.25;1.05;;;7.00;99.90;;;;;;5052158;28;20041;-62
2023/03/14 03:04:51;;;;;;;5.53;0.80;;;6.90;99.90;;;;;;5053389;28;20045;-63
2023/03/14 03:07:19;;;;;;;3.08;0.90;;;6.80;99.90;;;;;;5052081;28;20041;-63
2023/03/14 03:09:46;;;;;;;4.03;0.95;;;6.70;99.90;;;;;;5052026;28;20452;-62
2023/03/14 03:12:13;;;;;;;4.57;1.13;;;6.60;99.90;;;;;;5053464;28;20048;-62
2023/03/14 03:14:40;;;;;;;2.70;0.80;;;6.50;99.90;;;;;;5053414;28;20040;-62
2023/03/14 03:17:07;;;;;;;3.25;0.80;;;6.40;99.90;;;;;;5052306;28;20064;-63
2023/03/14 03:19:34;;;;;;;2.75;0.82;;;6.40;99.90;;;;;;5053317;28;20064;-62
2023/03/14 03:22:01;;;;;;;1.95;0.70;;;6.30;99.90;;;;;;5051896;28;20102;-63
2023/03/14 03:24:27;;;;;;;4.03;0.80;;;6.20;99.90;;;;;;5053173;28;20044;-63
2023/03/14 03:26:54;;;;;;;3.28;0.80;;;6.10;99.90;;;;;;5053284;28;20561;-63
2023/03/14 03:29:21;;;;;;;2.65;0.68;;;6.20;99.90;;;;;;5053232;28;20120;-63
2023/03/14 03:31:48;;;;;;;5.35;0.90;;;6.10;99.90;;;;;;5051670;28;20063;-64
2023/03/14 03:34:15;;;;;;;4.95;1.13;;;6.00;99.90;;;;;;5051768;28;20049;-63
2023/03/14 03:36:43;;;;;;;3.97;0.75;;;6.10;99.90;;;;;;5051979;28;20075;-63
2023/03/14 03:39:11;;;;;;;2.75;0.70;;;6.00;99.90;;;;;;5051723;28;20052;-63
2023/03/14 03:41:38;;;;;;;5.03;0.80;;;6.00;99.90;;;;;;5052995;28;20439;-62
2023/03/14 03:44:05;;;;;;;3.22;0.68;;;6.00;99.90;;;;;;5053363;28;20119;-63
2023/03/14 03:46:32;;;;;;;3.85;0.90;;;6.00;99.90;;;;;;5051533;28;20065;-63
2023/03/14 03:48:59;;;;;;;3.60;0.70;;;5.90;99.90;;;;;;5053207;28;20037;-63
2023/03/14 03:51:27;;;;;;;4.80;0.80;;;5.90;99.90;;;;;;5053379;28;20091;-63
2023/03/14 03:53:55;;;;;;;1.80;0.68;;;5.90;99.90;;;;;;5055294;28;20045;-63
2023/03/14 03:56:27;;;;;;;3.22;0.77;;;5.90;99.90;;;;;;5055479;28;20072;-62
2023/03/14 03:58:54;;;;;;;4.15;0.80;;;5.90;99.90;;;;;;5055222;28;20493;-62
2023/03/14 04:01:21;;;;;;;2.63;1.17;;;5.80;99.90;;;;;;5056739;28;20116;-62
2023/03/14 04:03:51;;;;;;;3.97;0.73;;;5.90;99.90;;;;;;5055105;28;20158;-63
2023/03/14 04:06:19;;;;;;;3.30;0.70;;;5.80;99.90;;;;;;5055456;28;20045;-63
2023/03/14 04:08:48;;;;;;;4.63;0.90;;;5.80;99.90;;;;;;5055158;28;20388;-62
2023/03/14 04:11:29;;;;;;;3.00;0.90;;;5.80;99.90;;;;;;5055271;28;20051;-62
2023/03/14 04:14:25;;;;;;;2.47;0.77;;;5.80;99.90;;;;;;5054957;28;20118;-63
2023/03/14 04:17:10;;;;;;;8.13;1.48;;;5.80;99.90;;;;;;5055141;28;20297;-62
2023/03/14 04:19:38;;;;;;;6.13;1.20;;;5.70;99.90;;;;;;5055228;28;20049;-63
2023/03/14 04:22:06;;;;;;;4.38;0.90;;;5.70;99.90;;;;;;5054990;28;20126;-63
2023/03/14 04:24:42;;;;;;;3.85;0.70;;;5.60;99.90;;;;;;5054620;28;20519;-63
2023/03/14 04:27:09;;;;;;;4.35;1.10;;;5.60;99.90;;;;;;5054537;28;20051;-62
2023/03/14 04:29:36;;;;;;;4.80;1.00;;;5.60;99.90;;;;;;5054817;28;20205;-63
2023/03/14 04:32:03;;;;;;;3.05;0.70;;;5.50;99.90;;;;;;5054959;28;20145;-63
2023/03/14 04:34:29;;;;;;;4.82;1.23;;;5.50;99.90;;;;;;5055976;28;20045;-62
2023/03/14 04:36:57;;;;;;;7.03;1.20;;;5.50;99.90;;;;;;5054998;28;20048;-62
2023/03/14 04:39:30;;;;;;;5.47;1.42;;;5.50;99.90;;;;;;5055003;28;20076;-63
2023/03/14 04:42:07;;;;;;;5.47;0.98;;;5.40;99.90;;;;;;5054600;28;20072;-63
2023/03/14 04:44:36;;;;;;;6.80;1.02;;;5.40;99.90;;;;;;5054796;28;20504;-63
2023/03/14 04:47:03;;;;;;;5.20;1.00;;;5.40;99.90;;;;;;5054412;28;20048;-63
2023/03/14 04:49:30;;;;;;;6.80;1.15;;;5.40;99.90;;;;;;5054475;28;20069;-63
2023/03/14 04:51:59;;;;;;;3.25;0.85;;;5.30;99.90;;;;;;5054746;28;20452;-62
2023/03/14 04:54:27;;;;;;;8.35;1.20;;;5.30;99.90;;;;;;5054512;28;20044;-63
2023/03/14 04:56:57;;;;;;;5.85;1.13;;;5.30;99.90;;;;;;5054650;28;20045;-63
2023/03/14 04:59:26;;;;;;;6.30;1.40;;;5.30;99.90;;;;;;5054648;28;20053;-63
2023/03/14 05:01:56;;;;;;;6.85;1.70;;;5.30;99.90;;;;;;5053843;28;20041;-63
2023/03/14 05:05:02;;;;;;;6.03;1.33;;;5.20;99.90;;;;;;5054922;28;20376;-62
2023/03/14 05:07:44;;;;;;;8.20;1.50;;;5.20;99.90;;;;;;5055608;28;20048;-62
2023/03/14 05:10:35;;;;;;;3.85;1.05;;;5.20;99.90;;;;;;5054402;28;20052;-62
2023/03/14 05:13:13;;;;;;;8.07;1.50;;;5.20;99.90;;;;;;5053715;28;20405;-63
2023/03/14 05:15:50;;;;;;;11.18;2.15;;;5.20;99.90;;;;;;5055446;28;20083;-63
2023/03/14 05:18:49;;;;;;;9.35;1.38;;;5.20;99.90;;;;;;5059002;28;20491;-63
2023/03/14 05:21:54;;;;;;;10.38;1.35;;;5.20;99.90;;;;;;5054636;28;20037;-62
2023/03/14 05:24:34;;;;;;;6.55;1.38;;;5.20;99.90;;;;;;5053774;28;20047;-63
2023/03/14 05:27:26;;;;;;;7.03;1.50;;;5.20;99.90;;;;;;5054121;28;20084;-62
2023/03/14 05:30:21;;;;;;;8.70;1.15;;;5.20;99.90;;;;;;5055088;28;20534;-65
2023/03/14 05:33:11;;;;;;;10.88;1.40;;;5.30;99.90;;;;;;5053732;28;20053;-63
2023/03/14 05:36:01;;;;;;;13.60;1.67;;;5.30;99.90;;;;;;5053512;28;20052;-62
2023/03/14 05:38:50;;;;;;;7.95;1.52;;;5.30;99.90;;;;;;5053109;28;20133;-62
2023/03/14 05:41:37;;;;;;;10.38;1.95;;;5.30;99.90;;;;;;5053307;28;20045;-63
2023/03/14 05:44:20;;;;;;;12.68;1.70;;;5.40;99.90;;;;;;5053775;28;20048;-63
2023/03/14 05:47:07;;;;;;;9.75;1.20;;;5.40;99.90;;;;;;5054288;28;20103;-64
2023/03/14 05:49:40;;;;;;;8.75;1.48;;;5.40;99.90;;;;;;5054455;28;20545;-63
2023/03/14 05:52:14;;;;;;;9.18;1.63;;;5.40;99.90;;;;;;5053750;28;20117;-63
2023/03/14 05:54:47;;;;;;;9.55;1.50;;;5.40;99.90;;;;;;5053440;28;20041;-63
2023/03/14 05:57:32;;;;;;;9.30;1.60;;;5.40;99.90;;;;;;5054950;28;20052;-63
2023/03/14 06:00:17;;;;;;;10.88;1.77;;;5.40;99.90;;;;;;5054926;28;20443;-63
2023/03/14 06:03:04;;;;;;;7.80;1.45;;;5.40;99.90;;;;;;5053726;28;20045;-63
2023/03/14 06:05:36;;;;;;;6.93;1.67;;;5.40;99.90;;;;;;5052944;28;20129;-64
2023/03/14 06:08:03;;;;;;;8.27;1.98;;;5.30;99.90;;;;;;5054499;28;20120;-64
2023/03/14 06:10:31;;;;;;;8.70;1.88;;;5.40;99.90;;;;;;5053204;28;20475;-63
2023/03/14 06:12:57;;;;;;;8.52;1.52;;;5.30;99.90;;;;;;5053659;28;20045;-63
2023/03/14 06:15:24;;;;;;;10.10;1.65;;;5.40;99.90;;;;;;5052309;28;20051;-64
2023/03/14 06:17:54;;;;;;;13.88;1.65;;;5.40;99.90;;;;;;5052706;28;20048;-62
2023/03/14 06:20:20;;;;;;;7.32;1.83;;;5.40;99.90;;;;;;5052544;28;20041;-64
2023/03/14 06:22:48;;;;;;;10.55;1.40;;;5.40;99.90;;;;;;5052818;28;20123;-63
2023/03/14 06:25:14;;;;;;;10.38;1.80;;;5.40;99.90;;;;;;5054289;28;20044;-63
2023/03/14 06:27:44;;;;;;;9.13;1.38;;;5.50;99.90;;;;;;5052671;28;20045;-63
2023/03/14 06:30:11;;;;;;;9.07;1.98;;;5.50;99.90;;;;;;5053843;28;20045;-63
2023/03/14 06:32:38;;;;;;;7.50;1.48;;;5.50;99.90;;;;;;5052411;28;20095;-63
2023/03/14 06:35:09;;;;;;;7.35;1.83;;;5.50;99.90;;;;;;5052848;28;20068;-64
2023/03/14 06:37:39;;;;;;;12.13;2.30;;;5.60;99.90;;;;;;5052937;28;20072;-63
2023/03/14 06:40:07;;;;;;;8.60;2.00;;;5.60;99.90;;;;;;5052919;28;20045;-63
2023/03/14 06:42:56;;;;;;;10.05;1.77;;;5.60;99.90;;;;;;5052324;28;20045;-63
2023/03/14 06:45:25;;;;;;;9.13;1.45;;;5.60;99.90;;;;;;5052649;28;20041;-63
2023/03/14 06:47:54;;;;;;;8.15;1.33;;;5.70;99.90;;;;;;5052857;28;20048;-63
2023/03/14 06:50:25;;;;;;;7.47;1.35;;;5.70;99.90;;;;;;5052844;28;20045;-64
2023/03/14 06:52:52;;;;;;;11.40;2.00;;;5.70;99.90;;;;;;5052353;28;20053;-64
2023/03/14 06:55:23;;;;;;;10.60;1.80;;;5.70;99.90;;;;;;5052388;28;20095;-64
2023/03/14 06:57:53;;;;;;;9.27;2.22;;;5.70;99.90;;;;;;5053551;28;20062;-64
2023/03/14 07:00:20;;;;;;;8.73;1.63;;;5.70;99.90;;;;;;5052280;28;20043;-64
2023/03/14 07:02:47;;;;;;;7.43;1.50;;;5.70;99.90;;;;;;5052532;28;20091;-64
2023/03/14 07:05:23;;;;;;;11.50;1.65;;;5.70;99.90;;;;;;5052650;28;20051;-63
2023/03/14 07:07:51;;;;;;;5.80;1.63;;;5.70;99.90;;;;;;5052164;28;20049;-64
2023/03/14 07:10:17;;;;;;;6.35;1.50;;;5.80;99.90;;;;;;5035843;28;20373;-63
2023/03/14 07:12:44;;;;;;;11.18;2.10;;;5.80;99.90;;;;;;5051985;28;20060;-64
2023/03/14 07:15:11;;;;;;;12.73;2.20;;;5.80;99.90;;;;;;5052387;28;20045;-64
2023/03/14 07:17:47;;;;;;;7.93;1.60;;;5.80;99.90;;;;;;5051894;28;20044;-63
2023/03/14 07:20:16;;;;;;;9.52;1.80;;;5.80;99.90;;;;;;5052282;28;20053;-64
2023/03/14 07:22:44;;;;;;;8.55;1.73;;;5.80;99.90;;;;;;5052000;28;20080;-64
2023/03/14 07:25:11;;;;;;;7.70;1.88;;;5.80;99.90;;;;;;5053038;28;20052;-64
2023/03/14 07:27:38;;;;;;;9.95;2.42;;;5.90;99.90;;;;;;5056198;28;20041;-64
2023/03/14 07:30:05;;;;;;;9.13;2.00;;;5.80;99.90;;;;;;5056416;28;20056;-63
2023/03/14 07:32:32;;;;;;;9.40;1.85;;;5.80;99.90;;;;;;5055896;28;20048;-64
2023/03/14 07:34:59;;;;;;;8.93;1.60;;;5.90;99.90;;;;;;5057672;28;20091;-64
2023/03/14 07:37:26;;;;;;;8.02;1.98;;;5.90;99.90;;;;;;5055727;28;20059;-64
2023/03/14 07:39:53;;;;;;;8.82;1.50;;;5.90;99.90;;;;;;5055870;28;20106;-64
2023/03/14 07:42:25;;;;;;;17.35;2.05;;;5.90;99.90;;;;;;5055745;28;20120;-63
2023/03/14 07:45:10;;;;;;;6.78;1.60;;;5.90;99.90;;;;;;5055782;28;20529;-63
2023/03/14 07:47:38;;;;;;;7.22;1.55;;;5.90;99.90;;;;;;5057314;28;20072;-63
2023/03/14 07:50:04;;;;;;;7.35;1.35;;;5.90;99.90;;;;;;5056770;28;20373;-63
2023/03/14 07:52:31;;;;;;;6.60;1.55;;;5.80;99.90;;;;;;5057021;28;20039;-64
2023/03/14 07:54:58;;;;;;;11.77;2.10;;;5.80;99.90;;;;;;5056993;28;20068;-64
2023/03/14 07:57:25;;;;;;;10.23;1.77;;;5.80;99.90;;;;;;5055348;28;20041;-63
2023/03/14 07:59:52;;;;;;;9.15;1.52;;;5.80;99.90;;;;;;5056795;28;20433;-64
2023/03/14 08:02:22;;;;;;;9.10;1.75;;;5.70;99.90;;;;;;5056660;28;20032;-64
2023/03/14 08:04:49;;;;;;;5.18;1.40;;;5.60;99.90;;;;;;5056842;28;20049;-64
2023/03/14 08:07:16;;;;;;;5.55;1.58;;;5.60;99.90;;;;;;5055688;28;20041;-64
2023/03/14 08:09:42;;;;;;;4.53;1.58;;;5.50;99.90;;;;;;5056547;28;20088;-64
2023/03/14 08:12:09;;;;;;;6.65;1.60;;;5.40;99.90;;;;;;5056783;28;20079;-64
2023/03/14 08:14:36;;;;;;;6.97;1.52;;;5.40;99.90;;;;;;5056384;28;20049;-64
2023/03/14 08:17:03;;;;;;;5.60;1.50;;;5.40;99.90;;;;;;5056500;28;20056;-64
2023/03/14 08:19:30;;;;;;;6.20;1.40;;;5.30;99.90;;;;;;5056177;28;20041;-65
2023/03/14 08:21:56;;;;;;;8.80;1.52;;;5.20;99.90;;;;;;5056098;28;20072;-62
2023/03/14 08:24:23;;;;;;;6.68;1.38;;;5.20;99.90;;;;;;5056295;28;20036;-64
2023/03/14 08:26:50;;;;;;;4.47;1.20;;;5.10;99.90;;;;;;5055480;28;20087;-63
2023/03/14 08:29:17;;;;;;;5.78;1.30;;;5.20;99.90;;;;;;5056349;28;20048;-67
2023/03/14 08:31:44;;;;;;;5.32;1.25;;;5.20;99.90;;;;;;5055721;28;20404;-64
2023/03/14 08:34:11;;;;;;;4.97;1.30;;;5.20;99.90;;;;;;5034370;28;20105;-63
2023/03/14 08:36:38;;;;;;;4.68;1.20;;;5.20;99.90;;;;;;5034776;28;20049;-63
2023/03/14 08:39:07;;;;;;;4.40;1.20;;;5.10;99.90;;;;;;5035250;28;20073;-64
2023/03/14 08:41:39;;;;;;;3.25;1.20;;;5.00;99.90;;;;;;5034119;28;20449;-64
2023/03/14 08:44:06;;;;;;;2.35;1.00;;;5.10;99.90;;;;;;5035260;28;20103;-63
2023/03/14 08:46:33;;;;;;;3.83;1.17;;;5.10;99.90;;;;;;5034838;28;20103;-63
2023/03/14 08:49:00;;;;;;;4.43;1.30;;;5.10;99.90;;;;;;5035167;28;20069;-63
2023/03/14 08:51:26;;;;;;;1.83;1.00;;;5.00;99.90;;;;;;5033770;28;20152;-63
2023/03/14 08:53:53;;;;;;;2.85;1.10;;;5.00;99.90;;;;;;5034612;28;20041;-61
2023/03/14 08:56:20;;;;;;;2.55;1.25;;;4.80;99.90;;;;;;5034725;28;20370;-62
2023/03/14 08:58:51;;;;;;;3.20;1.30;;;4.80;99.90;;;;;;5033580;28;20055;-62
2023/03/14 09:01:19;;;;;;;2.25;1.15;;;4.70;99.90;;;;;;5034920;28;20042;-62
2023/03/14 09:03:47;;;;;;;13.98;7.82;;;4.70;99.90;;;;;;5034690;28;20038;-61
2023/03/14 09:06:17;;;;;;;4.25;1.50;;;4.70;99.90;;;;;;5034499;28;20038;-63
2023/03/14 09:08:45;;;;;;;2.10;1.17;;;4.70;99.90;;;;;;5034768;28;20045;-63
2023/03/14 09:11:12;;;;;;;5.15;1.25;;;4.80;99.90;;;;;;5034743;28;20042;-63
2023/03/14 09:13:39;;;;;;;2.72;0.82;;;4.80;99.90;;;;;;5034406;28;20116;-62
2023/03/14 09:16:05;;;;;;;1.50;0.63;;;4.80;99.90;;;;;;5034432;28;20095;-62
2023/03/14 09:18:32;;;;;;;1.65;0.77;;;4.80;99.90;;;;;;5034697;28;20084;-63
2023/03/14 09:20:59;;;;;;;1.45;0.60;;;4.80;99.90;;;;;;5034405;28;20049;-63
2023/03/14 09:23:26;;;;;;;1.33;0.60;;;4.80;99.90;;;;;;5034386;28;20052;-63
2023/03/14 09:25:52;;;;;;;1.27;0.68;;;4.80;99.90;;;;;;5034222;28;20041;-63
2023/03/14 09:28:19;;;;;;;2.45;0.70;;;4.70;99.90;;;;;;5034402;28;20111;-63
2023/03/14 09:30:46;;;;;;;2.42;0.60;;;4.70;99.90;;;;;;5034569;28;20354;-63
2023/03/14 09:33:13;;;;;;;2.95;1.00;;;4.70;99.90;;;;;;5034388;28;20077;-62
2023/03/14 09:35:39;;;;;;;2.08;0.65;;;4.80;99.90;;;;;;5034249;28;20111;-62
2023/03/14 09:38:06;;;;;;;3.80;1.00;;;4.70;99.90;;;;;;5034042;28;20111;-62
2023/03/14 09:40:33;;;;;;;3.88;0.90;;;4.80;99.90;;;;;;5034239;28;20088;-62
2023/03/14 09:43:00;;;;;;;4.18;0.90;;;4.70;99.90;;;;;;5032816;28;20043;-62
2023/03/14 09:45:26;;;;;;;2.72;1.15;;;4.70;99.90;;;;;;5034202;28;20069;-63
2023/03/14 09:47:53;;;;;;;4.70;1.00;;;4.70;99.90;;;;;;5033554;28;20045;-62
2023/03/14 09:50:25;;;;;;;4.85;0.98;;;4.70;99.90;;;;;;5032286;28;20045;-63
2023/03/14 09:52:52;;;;;;;6.18;0.98;;;4.50;99.90;;;;;;5034061;28;20076;-62
2023/03/14 09:55:21;;;;;;;8.88;1.70;;;4.30;99.90;;;;;;5033870;28;20124;-63
2023/03/14 09:57:48;;;;;;;6.53;1.55;;;4.30;99.90;;;;;;5032238;28;20052;-62
2023/03/14 10:00:14;;;;;;;4.18;1.20;;;4.20;99.90;;;;;;5033559;28;20037;-63
2023/03/14 10:02:41;;;;;;;4.65;1.75;;;4.10;99.90;;;;;;5033665;28;20037;-63
2023/03/14 10:05:08;;;;;;;4.65;1.40;;;4.00;99.90;;;;;;5032963;28;20049;-62
2023/03/14 10:07:35;;;;;;;7.82;2.13;;;4.00;99.90;;;;;;5032288;28;20057;-62
2023/03/14 10:10:02;;;;;;;6.63;1.63;;;4.10;99.90;;;;;;5033575;28;20045;-62
2023/03/14 10:12:29;;;;;;;8.60;1.60;;;4.20;99.90;;;;;;5033688;28;20050;-62
2023/03/14 10:14:55;;;;;;;7.18;1.75;;;4.30;99.90;;;;;;5033663;28;20053;-62
2023/03/14 10:17:23;;;;;;;6.55;2.22;;;4.30;99.90;;;;;;5030161;28;20550;-62
2023/03/14 10:19:50;;;;;;;5.65;1.83;;;4.40;99.90;;;;;;5032272;28;20133;-62
2023/03/14 10:22:16;;;;;;;4.68;2.00;;;4.40;99.90;;;;;;5033763;28;20481;-62
2023/03/14 10:24:43;;;;;;;10.25;2.60;;;4.40;99.90;;;;;;5033645;28;20045;-62
2023/03/14 10:27:10;;;;;;;10.00;2.10;;;4.40;99.90;;;;;;5033903;28;20046;-62
2023/03/14 10:29:36;;;;;;;5.68;1.80;;;4.50;99.90;;;;;;5032417;28;20041;-62
2023/03/14 10:32:03;;;;;;;8.15;2.17;;;4.60;99.90;;;;;;5033804;28;20433;-62
2023/03/14 10:34:30;;;;;;;7.97;2.22;;;4.70;99.90;;;;;;5033433;28;20045;-62
2023/03/14 10:36:57;;;;;;;10.02;3.25;;;4.70;99.90;;;;;;5032270;28;20046;-62
2023/03/14 10:39:24;;;;;;;10.23;2.67;;;4.80;99.90;;;;;;5033439;28;20041;-62
2023/03/14 10:41:51;;;;;;;8.27;2.50;;;4.90;99.90;;;;;;5033336;28;20121;-62
2023/03/14 10:44:17;;;;;;;6.95;2.00;;;4.90;99.90;;;;;;5032295;28;20064;-62
2023/03/14 10:46:44;;;;;;;7.75;2.20;;;4.90;99.90;;;;;;5031614;28;20041;-62
2023/03/14 10:49:25;;;;;;;10.00;2.10;;;5.00;99.90;;;;;;5030789;28;20046;-62
2023/03/14 10:51:51;;;;;;;10.23;2.17;;;5.10;99.90;;;;;;5030735;28;20053;-62
2023/03/14 10:54:18;;;;;;;6.47;2.00;;;5.20;99.90;;;;;;5032187;28;20049;-62
2023/03/14 10:56:45;;;;;;;6.22;2.00;;;5.30;99.90;;;;;;5032139;28;20038;-62
2023/03/14 10:59:11;;;;;;;7.85;1.98;;;5.40;99.90;;;;;;5032407;28;20437;-62
2023/03/14 11:01:38;;;;;;;8.27;1.83;;;5.50;99.90;;;;;;5033040;28;20500;-62
2023/03/14 11:04:05;;;;;;;8.23;1.70;;;5.50;99.90;;;;;;5033349;28;20054;-63
2023/03/14 11:06:32;;;;;;;7.88;2.00;;;5.40;99.90;;;;;;5033095;28;20049;-62
2023/03/14 11:09:00;;;;;;;5.38;1.58;;;5.50;99.90;;;;;;5033387;28;20076;-62
2023/03/14 11:11:27;;;;;;;6.68;1.90;;;5.60;99.90;;;;;;5033105;28;20133;-62
2023/03/14 11:13:53;;;;;;;6.85;1.77;;;5.70;99.90;;;;;;5031734;28;20077;-62
2023/03/14 11:16:20;;;;;;;6.88;2.00;;;5.80;99.90;;;;;;5031746;28;20099;-62
2023/03/14 11:18:47;;;;;;;5.50;1.73;;;5.90;99.90;;;;;;5033240;28;20079;-62
2023/03/14 11:21:14;;;;;;;6.90;1.80;;;5.90;99.90;;;;;;5032818;28;20073;-62
2023/03/14 11:23:41;;;;;;;6.25;1.58;;;6.10;99.90;;;;;;5032795;28;20099;-62
2023/03/14 11:26:08;;;;;;;6.80;1.75;;;6.10;99.90;;;;;;5033035;28;20041;-62
2023/03/14 11:28:34;;;;;;;8.73;1.70;;;6.10;99.90;;;;;;5032755;28;20045;-62
2023/03/14 11:31:01;;;;;;;7.93;1.85;;;6.20;99.90;;;;;;5032906;28;20103;-62
2023/03/14 11:33:28;;;;;;;7.32;1.85;;;6.20;99.90;;;;;;5033016;28;20044;-62
2023/03/14 11:35:55;;;;;;;8.30;1.63;;;6.20;99.90;;;;;;5032899;28;20041;-62
2023/03/14 11:38:22;;;;;;;7.63;2.03;;;6.30;99.90;;;;;;5032972;28;20065;-63
2023/03/14 11:40:48;;;;;;;8.93;1.75;;;6.40;99.90;;;;;;5032990;28;20099;-63
2023/03/14 11:43:15;;;;;;;13.73;2.90;;;6.40;99.90;;;;;;5032968;28;20041;-62
2023/03/14 11:45:42;;;;;;;23.45;12.63;;;6.40;99.90;;;;;;5032983;28;20446;-63
2023/03/14 11:48:09;;;;;;;8.35;2.25;;;6.40;99.90;;;;;;5032722;28;20041;-62
2023/03/14 11:50:36;;;;;;;8.85;2.60;;;6.40;99.90;;;;;;5032905;28;20492;-63
2023/03/14 11:53:03;;;;;;;8.73;2.15;;;6.30;99.90;;;;;;5032746;28;20053;-62
2023/03/14 11:55:30;;;;;;;9.27;2.40;;;6.30;99.90;;;;;;5032777;28;20046;-63
2023/03/14 11:57:56;;;;;;;10.43;2.97;;;6.40;99.90;;;;;;5032867;28;20465;-63
2023/03/14 12:00:23;;;;;;;10.38;2.80;;;6.40;99.90;;;;;;5032580;28;20049;-62
2023/03/14 12:02:50;;;;;;;12.05;2.75;;;6.50;99.90;;;;;;5032805;28;20095;-63
2023/03/14 12:05:17;;;;;;;9.15;2.22;;;6.60;99.90;;;;;;5029785;28;20048;-62
2023/03/14 12:07:44;;;;;;;11.68;2.63;;;6.60;99.90;;;;;;5032736;28;20402;-63
2023/03/14 12:10:11;;;;;;;11.27;2.40;;;6.60;99.90;;;;;;5032642;28;20048;-62
2023/03/14 12:12:37;;;;;;;13.02;2.35;;;6.60;99.90;;;;;;5034438;28;20041;-63
2023/03/14 12:15:04;;;;;;;10.68;2.72;;;6.60;99.90;;;;;;5036290;28;20060;-63
2023/03/14 12:17:31;;;;;;;6.00;1.85;;;6.70;99.90;;;;;;5036284;28;20934;-63
2023/03/14 12:19:57;;;;;;;6.90;1.95;;;6.80;99.90;;;;;;5035836;28;20390;-63
2023/03/14 12:22:24;;;;;;;10.00;2.78;;;6.90;99.90;;;;;;5036079;28;20041;-63
2023/03/14 12:24:51;;;;;;;10.50;2.60;;;7.00;99.90;;;;;;5036184;28;20036;-63
2023/03/14 12:27:18;;;;;;;11.48;2.97;;;7.10;99.90;;;;;;5035273;28;20038;-63
2023/03/14 12:29:44;;;;;;;10.48;2.30;;;7.30;99.90;;;;;;5036028;28;20045;-63
2023/03/14 12:32:11;;;;;;;12.00;2.38;;;7.30;99.90;;;;;;5036047;28;20037;-63
2023/03/14 12:34:38;;;;;;;8.48;1.83;;;7.40;99.90;;;;;;5035615;28;20384;-63
2023/03/14 12:37:07;;;;;;;7.88;1.90;;;7.40;99.90;;;;;;5035819;28;20103;-63
2023/03/14 12:39:33;;;;;;;7.85;1.92;;;7.30;99.90;;;;;;5035474;28;20076;-63
2023/03/14 12:42:00;;;;;;;10.52;1.98;;;7.30;99.90;;;;;;5034286;28;20091;-63
2023/03/14 12:44:27;;;;;;;11.65;1.98;;;7.30;99.90;;;;;;5036168;28;20030;-63
2023/03/14 12:46:54;;;;;;;9.13;1.70;;;7.20;99.90;;;;;;5035221;28;20088;-64
2023/03/14 12:49:22;;;;;;;8.52;2.13;;;7.20;99.90;;;;;;5035909;28;20038;-64
2023/03/14 12:51:49;;;;;;;7.90;1.90;;;7.20;99.90;;;;;;5035782;28;20034;-64
2023/03/14 12:54:16;;;;;;;10.02;2.30;;;7.20;99.90;;;;;;5035650;28;20047;-64
2023/03/14 12:56:42;;;;;;;9.60;2.05;;;7.30;99.90;;;;;;5035867;28;20042;-64
2023/03/14 12:59:09;;;;;;;7.82;2.13;;;7.30;99.90;;;;;;5035713;28;20451;-63
2023/03/14 13:01:36;;;;;;;8.27;1.88;;;7.40;99.90;;;;;;5035545;28;20117;-64